createdAt,value
2018-05-26T00:04:00.000Z,99155
2018-05-26T00:09:00.000Z,99166
2018-05-26T00:14:00.000Z,99162
2018-05-26T00:19:00.000Z,99176
2018-05-26T00:24:00.000Z,99178
2018-05-26T00:29:00.000Z,99175
2018-05-26T00:34:00.000Z,99174
2018-05-26T00:39:00.000Z,99180
2018-05-26T00:44:00.000Z,99183
2018-05-26T00:49:00.000Z,99174
2018-05-26T00:54:00.000Z,99171
2018-05-26T00:59:00.000Z,99172
2018-05-26T01:04:00.000Z,99178
2018-05-26T01:09:00.000Z,99174
2018-05-26T01:14:00.000Z,99176
2018-05-26T01:19:00.000Z,99176
2018-05-26T01:24:00.000Z,99170
2018-05-26T01:29:00.000Z,99181
2018-05-26T01:34:00.000Z,99171
2018-05-26T01:39:00.000Z,99172
2018-05-26T01:44:00.000Z,99180
2018-05-26T01:49:00.000Z,99185
2018-05-26T01:54:00.000Z,99175
2018-05-26T01:59:00.000Z,99169
2018-05-26T02:04:00.000Z,99173
2018-05-26T02:09:00.000Z,99176
2018-05-26T02:14:00.000Z,99166
2018-05-26T02:19:00.000Z,99167
2018-05-26T02:24:00.000Z,99158
2018-05-26T02:29:00.000Z,99167
2018-05-26T02:34:00.000Z,99178
2018-05-26T02:39:00.000Z,99180
2018-05-26T02:44:00.000Z,99177
2018-05-26T02:49:00.000Z,99181
2018-05-26T02:54:00.000Z,99191
2018-05-26T02:59:00.000Z,99174
2018-05-26T03:04:00.000Z,99177
2018-05-26T03:09:00.000Z,99182
2018-05-26T03:14:00.000Z,99183
2018-05-26T03:19:00.000Z,99192
2018-05-26T03:24:00.000Z,99189
2018-05-26T03:29:00.000Z,99186
2018-05-26T03:34:00.000Z,99190
2018-05-26T03:39:00.000Z,99190
2018-05-26T03:44:00.000Z,99209
2018-05-26T03:49:00.000Z,99209
2018-05-26T03:54:00.000Z,99212
2018-05-26T03:59:00.000Z,99216
2018-05-26T04:04:00.000Z,99225
2018-05-26T04:09:00.000Z,99223
2018-05-26T04:14:00.000Z,99230
2018-05-26T04:19:00.000Z,99230
2018-05-26T04:25:00.000Z,99240
2018-05-26T04:30:00.000Z,99249
2018-05-26T04:35:00.000Z,99243
2018-05-26T04:40:00.000Z,99246
2018-05-26T04:45:00.000Z,99257
2018-05-26T04:50:00.000Z,99256
2018-05-26T04:55:00.000Z,99262
2018-05-26T05:00:00.000Z,99264
2018-05-26T05:05:00.000Z,99268
2018-05-26T05:10:00.000Z,99282
2018-05-26T05:15:00.000Z,99276
2018-05-26T05:20:00.000Z,99271
2018-05-26T05:25:00.000Z,99272
2018-05-26T05:30:00.000Z,99273
2018-05-26T05:35:00.000Z,99271
2018-05-26T05:40:00.000Z,99271
2018-05-26T05:45:00.000Z,99282
2018-05-26T05:50:00.000Z,99278
2018-05-26T05:55:00.000Z,99280
2018-05-26T06:00:00.000Z,99292
2018-05-26T06:05:00.000Z,99300
2018-05-26T06:10:00.000Z,99299
2018-05-26T06:15:00.000Z,99300
2018-05-26T06:20:00.000Z,99307
2018-05-26T06:25:00.000Z,99306
2018-05-26T06:30:00.000Z,99306
2018-05-26T06:35:00.000Z,99302
2018-05-26T06:40:00.000Z,99309
2018-05-26T06:45:00.000Z,99307
2018-05-26T06:50:00.000Z,99313
2018-05-26T06:55:00.000Z,99305
2018-05-26T07:00:00.000Z,99313
2018-05-26T07:05:00.000Z,99327
2018-05-26T07:10:00.000Z,99336
2018-05-26T07:15:00.000Z,99330
2018-05-26T07:20:00.000Z,99329
2018-05-26T07:25:00.000Z,99330
2018-05-26T07:30:00.000Z,99327
2018-05-26T07:35:00.000Z,99336
2018-05-26T07:40:00.000Z,99319
2018-05-26T07:45:00.000Z,99325
2018-05-26T07:50:00.000Z,99331
2018-05-26T07:55:00.000Z,99336
2018-05-26T08:00:00.000Z,99337
2018-05-26T08:05:00.000Z,99340
2018-05-26T08:10:00.000Z,99337
2018-05-26T08:15:00.000Z,99333
2018-05-26T08:20:00.000Z,99338
2018-05-26T08:25:00.000Z,99341
2018-05-26T08:30:00.000Z,99339
2018-05-26T08:35:00.000Z,99347
2018-05-26T08:40:00.000Z,99353
2018-05-26T08:45:00.000Z,99354
2018-05-26T08:50:00.000Z,99350
2018-05-26T08:55:00.000Z,99362
2018-05-26T09:00:00.000Z,99351
2018-05-26T09:05:00.000Z,99357
2018-05-26T09:10:00.000Z,99358
2018-05-26T09:15:00.000Z,99354
2018-05-26T09:20:00.000Z,99354
2018-05-26T09:25:00.000Z,99372
2018-05-26T09:30:00.000Z,99361
2018-05-26T09:35:00.000Z,99361
2018-05-26T09:40:00.000Z,99362
2018-05-26T09:45:00.000Z,99362
2018-05-26T09:50:00.000Z,99368
2018-05-26T09:55:00.000Z,99362
2018-05-26T10:00:00.000Z,99368
2018-05-26T10:05:00.000Z,99349
2018-05-26T10:10:00.000Z,99349
2018-05-26T10:15:00.000Z,99355
2018-05-26T10:20:00.000Z,99351
2018-05-26T10:25:00.000Z,99362
2018-05-26T10:30:00.000Z,99362
2018-05-26T10:36:00.000Z,99354
2018-05-26T10:41:00.000Z,99359
2018-05-26T10:46:00.000Z,99355
2018-05-26T10:51:00.000Z,99369
2018-05-26T10:56:00.000Z,99358
2018-05-26T11:01:00.000Z,99362
2018-05-26T11:06:00.000Z,99350
2018-05-26T11:11:00.000Z,99358
2018-05-26T11:16:00.000Z,99356
2018-05-26T11:21:00.000Z,99355
2018-05-26T11:26:00.000Z,99359
2018-05-26T11:31:00.000Z,99352
2018-05-26T11:36:00.000Z,99352
2018-05-26T11:41:00.000Z,99351
2018-05-26T11:46:00.000Z,99347
2018-05-26T11:51:00.000Z,99346
2018-05-26T11:56:00.000Z,99343
2018-05-26T12:01:00.000Z,99346
2018-05-26T12:06:00.000Z,99336
2018-05-26T12:11:00.000Z,99329
2018-05-26T12:16:00.000Z,99319
2018-05-26T12:21:00.000Z,99327
2018-05-26T12:26:00.000Z,99323
2018-05-26T12:31:00.000Z,99325
2018-05-26T12:36:00.000Z,99316
2018-05-26T12:41:00.000Z,99309
2018-05-26T12:46:00.000Z,99313
2018-05-26T12:51:00.000Z,99306
2018-05-26T12:56:00.000Z,99294
2018-05-26T13:01:00.000Z,99289
2018-05-26T13:06:00.000Z,99285
2018-05-26T13:11:00.000Z,99286
2018-05-26T13:16:00.000Z,99283
2018-05-26T13:21:00.000Z,99275
2018-05-26T13:26:00.000Z,99271
2018-05-26T13:31:00.000Z,99263
2018-05-26T13:36:00.000Z,99263
2018-05-26T13:41:00.000Z,99260
2018-05-26T13:46:00.000Z,99257
2018-05-26T13:51:00.000Z,99254
2018-05-26T13:56:00.000Z,99254
2018-05-26T14:01:00.000Z,99258
2018-05-26T14:06:00.000Z,99255
2018-05-26T14:11:00.000Z,99250
2018-05-26T14:16:00.000Z,99251
2018-05-26T14:21:00.000Z,99243
2018-05-26T14:26:00.000Z,99236
2018-05-26T14:31:00.000Z,99235
2018-05-26T14:36:00.000Z,99233
2018-05-26T14:41:00.000Z,99239
2018-05-26T14:46:00.000Z,99223
2018-05-26T14:51:00.000Z,99232
2018-05-26T14:56:00.000Z,99224
2018-05-26T15:01:00.000Z,99222
2018-05-26T15:06:00.000Z,99208
2018-05-26T15:11:00.000Z,99207
2018-05-26T15:16:00.000Z,99216
2018-05-26T15:21:00.000Z,99214
2018-05-26T15:26:00.000Z,99212
2018-05-26T15:31:00.000Z,99213
2018-05-26T15:36:00.000Z,99204
2018-05-26T15:41:00.000Z,99212
2018-05-26T15:46:00.000Z,99202
2018-05-26T15:51:00.000Z,99201
2018-05-26T15:56:00.000Z,99194
2018-05-26T16:01:00.000Z,99193
2018-05-26T16:07:00.000Z,99189
2018-05-26T16:12:00.000Z,99194
2018-05-26T16:17:00.000Z,99189
2018-05-26T16:22:00.000Z,99191
2018-05-26T16:27:00.000Z,99183
2018-05-26T16:32:00.000Z,99188
2018-05-26T16:37:00.000Z,99177
2018-05-26T16:42:00.000Z,99186
2018-05-26T16:47:00.000Z,99175
2018-05-26T16:52:00.000Z,99184
2018-05-26T16:57:00.000Z,99183
2018-05-26T17:02:00.000Z,99182
2018-05-26T17:07:00.000Z,99178
2018-05-26T17:12:00.000Z,99184
2018-05-26T17:17:00.000Z,99183
2018-05-26T17:22:00.000Z,99177
2018-05-26T17:27:00.000Z,99187
2018-05-26T17:32:00.000Z,99183
2018-05-26T17:37:00.000Z,99177
2018-05-26T17:42:00.000Z,99179
2018-05-26T17:47:00.000Z,99184
2018-05-26T17:52:00.000Z,99183
2018-05-26T17:57:00.000Z,99177
2018-05-26T18:02:00.000Z,99184
2018-05-26T18:07:00.000Z,99182
2018-05-26T18:12:00.000Z,99173
2018-05-26T18:17:00.000Z,99182
2018-05-26T18:22:00.000Z,99182
2018-05-26T18:27:00.000Z,99190
2018-05-26T18:32:00.000Z,99187
2018-05-26T18:37:00.000Z,99198
2018-05-26T18:42:00.000Z,99205
2018-05-26T18:47:00.000Z,99214
2018-05-26T18:52:00.000Z,99211
2018-05-26T18:57:00.000Z,99215
2018-05-26T19:02:00.000Z,99221
2018-05-26T19:07:00.000Z,99225
2018-05-26T19:12:00.000Z,99238
2018-05-26T19:17:00.000Z,99244
2018-05-26T19:22:00.000Z,99260
2018-05-26T19:27:00.000Z,99252
2018-05-26T19:32:00.000Z,99254
2018-05-26T19:37:00.000Z,99250
2018-05-26T19:42:00.000Z,99247
2018-05-26T19:47:00.000Z,99261
2018-05-26T19:52:00.000Z,99261
2018-05-26T19:57:00.000Z,99258
2018-05-26T20:02:00.000Z,99254
2018-05-26T20:07:00.000Z,99261
2018-05-26T20:12:00.000Z,99268
2018-05-26T20:17:00.000Z,99270
2018-05-26T20:22:00.000Z,99275
2018-05-26T20:27:00.000Z,99271
2018-05-26T20:32:00.000Z,99273
2018-05-26T20:37:00.000Z,99280
2018-05-26T20:42:00.000Z,99271
2018-05-26T20:47:00.000Z,99278
2018-05-26T20:52:00.000Z,99273
2018-05-26T20:57:00.000Z,99274
2018-05-26T21:02:00.000Z,99278
2018-05-26T21:07:00.000Z,99288
2018-05-26T21:12:00.000Z,99286
2018-05-26T21:17:00.000Z,99289
2018-05-26T21:22:00.000Z,99286
2018-05-26T21:27:00.000Z,99289
2018-05-26T21:32:00.000Z,99298
2018-05-26T21:37:00.000Z,99298
2018-05-26T21:42:00.000Z,99297
2018-05-26T21:47:00.000Z,99296
2018-05-26T21:52:00.000Z,99292
2018-05-26T21:57:00.000Z,99285
2018-05-26T22:02:00.000Z,99293
2018-05-26T22:07:00.000Z,99299
2018-05-26T22:13:00.000Z,99294
2018-05-26T22:18:00.000Z,99295
2018-05-26T22:23:00.000Z,99281
2018-05-26T22:28:00.000Z,99275
2018-05-26T22:33:00.000Z,99277
2018-05-26T22:38:00.000Z,99275
2018-05-26T22:43:00.000Z,99275
2018-05-26T22:48:00.000Z,99270
2018-05-26T22:53:00.000Z,99272
2018-05-26T22:58:00.000Z,99255
2018-05-26T23:03:00.000Z,99259
2018-05-26T23:08:00.000Z,99260
2018-05-26T23:13:00.000Z,99256
2018-05-26T23:18:00.000Z,99254
2018-05-26T23:23:00.000Z,99254
2018-05-26T23:28:00.000Z,99249
2018-05-26T23:33:00.000Z,99264
2018-05-26T23:38:00.000Z,99257
2018-05-26T23:43:00.000Z,99253
2018-05-26T23:48:00.000Z,99241
2018-05-26T23:53:00.000Z,99233
2018-05-26T23:58:00.000Z,99231
